sensor_id;sensor_type;location;lat;lon;timestamp;P1;durP1;ratioP1;P2;durP2;ratioP2
11078;SDS011;5592;49.234;7.268;2023-08-20T00:01:21;18.07;;;11.80;;
11078;SDS011;5592;49.234;7.268;2023-08-20T00:03:49;13.03;;;11.53;;
11078;SDS011;5592;49.234;7.268;2023-08-20T00:06:16;17.93;;;10.30;;
11078;SDS011;5592;49.234;7.268;2023-08-20T00:08:42;12.93;;;11.50;;
11078;SDS011;5592;49.234;7.268;2023-08-20T00:11:08;16.13;;;11.40;;
11078;SDS011;5592;49.234;7.268;2023-08-20T00:13:34;14.67;;;10.67;;
11078;SDS011;5592;49.234;7.268;2023-08-20T00:16:00;15.60;;;10.40;;
11078;SDS011;5592;49.234;7.268;2023-08-20T00:18:27;17.13;;;9.20;;
11078;SDS011;5592;49.234;7.268;2023-08-20T00:20:53;12.70;;;10.10;;
11078;SDS011;5592;49.234;7.268;2023-08-20T00:23:20;12.97;;;10.70;;
11078;SDS011;5592;49.234;7.268;2023-08-20T00:25:46;13.90;;;10.67;;
11078;SDS011;5592;49.234;7.268;2023-08-20T00:28:11;13.23;;;9.47;;
11078;SDS011;5592;49.234;7.268;2023-08-20T00:30:37;15.33;;;10.60;;
11078;SDS011;5592;49.234;7.268;2023-08-20T00:33:03;12.53;;;10.07;;
11078;SDS011;5592;49.234;7.268;2023-08-20T00:35:29;14.23;;;10.10;;
11078;SDS011;5592;49.234;7.268;2023-08-20T00:37:54;11.30;;;8.87;;
11078;SDS011;5592;49.234;7.268;2023-08-20T00:40:20;11.73;;;9.70;;
11078;SDS011;5592;49.234;7.268;2023-08-20T00:42:45;18.30;;;11.20;;
11078;SDS011;5592;49.234;7.268;2023-08-20T00:45:11;12.77;;;10.63;;
11078;SDS011;5592;49.234;7.268;2023-08-20T00:47:37;14.27;;;11.70;;
11078;SDS011;5592;49.234;7.268;2023-08-20T00:50:03;14.70;;;11.10;;
11078;SDS011;5592;49.234;7.268;2023-08-20T00:52:31;12.47;;;11.10;;
11078;SDS011;5592;49.234;7.268;2023-08-20T00:54:57;15.23;;;11.60;;
11078;SDS011;5592;49.234;7.268;2023-08-20T00:57:23;19.00;;;11.80;;
11078;SDS011;5592;49.234;7.268;2023-08-20T00:59:50;14.03;;;10.40;;
11078;SDS011;5592;49.234;7.268;2023-08-20T01:02:16;18.43;;;12.43;;
11078;SDS011;5592;49.234;7.268;2023-08-20T01:04:42;14.70;;;11.23;;
11078;SDS011;5592;49.234;7.268;2023-08-20T01:12:19;22.20;;;12.30;;
11078;SDS011;5592;49.234;7.268;2023-08-20T01:14:46;15.40;;;11.80;;
11078;SDS011;5592;49.234;7.268;2023-08-20T01:17:11;25.53;;;11.03;;
11078;SDS011;5592;49.234;7.268;2023-08-20T01:19:37;15.37;;;11.10;;
11078;SDS011;5592;49.234;7.268;2023-08-20T01:30:15;14.90;;;9.00;;
11078;SDS011;5592;49.234;7.268;2023-08-20T01:32:41;11.47;;;10.27;;
11078;SDS011;5592;49.234;7.268;2023-08-20T01:35:11;12.73;;;9.83;;
11078;SDS011;5592;49.234;7.268;2023-08-20T01:37:40;12.53;;;9.60;;
11078;SDS011;5592;49.234;7.268;2023-08-20T01:40:06;13.30;;;9.47;;
11078;SDS011;5592;49.234;7.268;2023-08-20T01:42:39;12.97;;;10.17;;
11078;SDS011;5592;49.234;7.268;2023-08-20T01:45:06;11.07;;;9.97;;
11078;SDS011;5592;49.234;7.268;2023-08-20T01:47:32;13.60;;;10.10;;
11078;SDS011;5592;49.234;7.268;2023-08-20T01:49:58;15.90;;;9.73;;
11078;SDS011;5592;49.234;7.268;2023-08-20T01:52:24;17.03;;;9.57;;
11078;SDS011;5592;49.234;7.268;2023-08-20T01:54:50;18.03;;;11.30;;
11078;SDS011;5592;49.234;7.268;2023-08-20T01:57:16;12.33;;;10.43;;
11078;SDS011;5592;49.234;7.268;2023-08-20T01:59:42;11.93;;;9.63;;
11078;SDS011;5592;49.234;7.268;2023-08-20T02:02:08;10.17;;;8.70;;
11078;SDS011;5592;49.234;7.268;2023-08-20T02:04:33;13.17;;;10.40;;
11078;SDS011;5592;49.234;7.268;2023-08-20T02:06:59;12.90;;;9.40;;
11078;SDS011;5592;49.234;7.268;2023-08-20T02:09:25;21.90;;;12.03;;
11078;SDS011;5592;49.234;7.268;2023-08-20T02:11:51;12.77;;;11.40;;
11078;SDS011;5592;49.234;7.268;2023-08-20T02:14:17;13.67;;;11.20;;
11078;SDS011;5592;49.234;7.268;2023-08-20T02:16:43;14.27;;;12.10;;
11078;SDS011;5592;49.234;7.268;2023-08-20T02:19:09;13.93;;;11.40;;
11078;SDS011;5592;49.234;7.268;2023-08-20T02:21:34;19.07;;;10.97;;
11078;SDS011;5592;49.234;7.268;2023-08-20T02:24:00;17.20;;;13.37;;
11078;SDS011;5592;49.234;7.268;2023-08-20T02:26:26;15.43;;;13.00;;
11078;SDS011;5592;49.234;7.268;2023-08-20T02:28:52;21.13;;;13.40;;
11078;SDS011;5592;49.234;7.268;2023-08-20T02:31:18;20.33;;;13.37;;
11078;SDS011;5592;49.234;7.268;2023-08-20T02:33:43;16.93;;;11.60;;
11078;SDS011;5592;49.234;7.268;2023-08-20T02:36:09;15.93;;;11.40;;
11078;SDS011;5592;49.234;7.268;2023-08-20T02:38:34;13.87;;;10.60;;
11078;SDS011;5592;49.234;7.268;2023-08-20T02:41:01;14.77;;;11.90;;
11078;SDS011;5592;49.234;7.268;2023-08-20T02:43:30;16.33;;;11.77;;
11078;SDS011;5592;49.234;7.268;2023-08-20T02:45:55;17.50;;;11.10;;
11078;SDS011;5592;49.234;7.268;2023-08-20T02:48:21;10.50;;;8.50;;
11078;SDS011;5592;49.234;7.268;2023-08-20T02:50:52;16.70;;;9.80;;
11078;SDS011;5592;49.234;7.268;2023-08-20T02:53:21;12.67;;;9.90;;
11078;SDS011;5592;49.234;7.268;2023-08-20T02:55:47;12.00;;;9.23;;
11078;SDS011;5592;49.234;7.268;2023-08-20T02:58:12;14.60;;;11.33;;
11078;SDS011;5592;49.234;7.268;2023-08-20T03:00:38;17.47;;;11.70;;
11078;SDS011;5592;49.234;7.268;2023-08-20T03:03:04;21.23;;;11.43;;
11078;SDS011;5592;49.234;7.268;2023-08-20T03:05:32;14.73;;;10.63;;
11078;SDS011;5592;49.234;7.268;2023-08-20T03:07:58;13.37;;;10.40;;
11078;SDS011;5592;49.234;7.268;2023-08-20T03:10:24;13.87;;;11.63;;
11078;SDS011;5592;49.234;7.268;2023-08-20T03:12:50;16.33;;;10.03;;
11078;SDS011;5592;49.234;7.268;2023-08-20T03:15:16;14.17;;;10.53;;
11078;SDS011;5592;49.234;7.268;2023-08-20T03:17:41;15.90;;;11.57;;
11078;SDS011;5592;49.234;7.268;2023-08-20T03:20:07;16.50;;;11.50;;
11078;SDS011;5592;49.234;7.268;2023-08-20T03:22:35;16.67;;;10.10;;
11078;SDS011;5592;49.234;7.268;2023-08-20T03:25:02;16.30;;;10.40;;
11078;SDS011;5592;49.234;7.268;2023-08-20T03:27:28;12.20;;;9.67;;
11078;SDS011;5592;49.234;7.268;2023-08-20T03:29:54;12.47;;;9.90;;
11078;SDS011;5592;49.234;7.268;2023-08-20T03:32:19;10.83;;;9.70;;
11078;SDS011;5592;49.234;7.268;2023-08-20T03:34:45;14.30;;;9.03;;
11078;SDS011;5592;49.234;7.268;2023-08-20T03:37:11;15.50;;;11.67;;
11078;SDS011;5592;49.234;7.268;2023-08-20T03:39:37;18.90;;;10.63;;
11078;SDS011;5592;49.234;7.268;2023-08-20T03:42:03;25.03;;;12.53;;
11078;SDS011;5592;49.234;7.268;2023-08-20T03:44:28;13.93;;;11.17;;
11078;SDS011;5592;49.234;7.268;2023-08-20T03:46:55;18.93;;;10.97;;
11078;SDS011;5592;49.234;7.268;2023-08-20T03:49:20;14.80;;;10.70;;
11078;SDS011;5592;49.234;7.268;2023-08-20T03:51:47;13.30;;;9.73;;
11078;SDS011;5592;49.234;7.268;2023-08-20T03:54:13;18.27;;;10.80;;
11078;SDS011;5592;49.234;7.268;2023-08-20T03:56:39;19.50;;;11.03;;
11078;SDS011;5592;49.234;7.268;2023-08-20T03:59:04;13.20;;;9.57;;
11078;SDS011;5592;49.234;7.268;2023-08-20T04:01:30;14.20;;;9.93;;
11078;SDS011;5592;49.234;7.268;2023-08-20T04:03:56;18.23;;;10.10;;
11078;SDS011;5592;49.234;7.268;2023-08-20T04:06:22;10.07;;;8.70;;
11078;SDS011;5592;49.234;7.268;2023-08-20T04:08:47;17.73;;;8.90;;
11078;SDS011;5592;49.234;7.268;2023-08-20T04:11:13;13.33;;;10.20;;
11078;SDS011;5592;49.234;7.268;2023-08-20T04:13:39;16.10;;;10.60;;
11078;SDS011;5592;49.234;7.268;2023-08-20T04:16:07;18.43;;;12.70;;
11078;SDS011;5592;49.234;7.268;2023-08-20T04:18:33;12.93;;;10.80;;
11078;SDS011;5592;49.234;7.268;2023-08-20T04:20:59;12.97;;;10.90;;
11078;SDS011;5592;49.234;7.268;2023-08-20T04:23:24;13.83;;;10.93;;
11078;SDS011;5592;49.234;7.268;2023-08-20T04:25:50;12.70;;;10.07;;
11078;SDS011;5592;49.234;7.268;2023-08-20T04:28:16;12.50;;;9.50;;
11078;SDS011;5592;49.234;7.268;2023-08-20T04:30:41;10.30;;;8.80;;
11078;SDS011;5592;49.234;7.268;2023-08-20T04:33:08;13.60;;;10.80;;
11078;SDS011;5592;49.234;7.268;2023-08-20T04:35:34;12.83;;;10.43;;
11078;SDS011;5592;49.234;7.268;2023-08-20T04:38:00;17.57;;;9.77;;
11078;SDS011;5592;49.234;7.268;2023-08-20T04:40:26;16.83;;;9.20;;
11078;SDS011;5592;49.234;7.268;2023-08-20T04:42:52;13.93;;;9.07;;
11078;SDS011;5592;49.234;7.268;2023-08-20T04:45:17;14.83;;;10.70;;
11078;SDS011;5592;49.234;7.268;2023-08-20T04:47:45;20.00;;;11.60;;
11078;SDS011;5592;49.234;7.268;2023-08-20T04:50:11;14.20;;;11.60;;
11078;SDS011;5592;49.234;7.268;2023-08-20T04:52:38;19.73;;;9.40;;
11078;SDS011;5592;49.234;7.268;2023-08-20T04:55:04;10.83;;;8.67;;
11078;SDS011;5592;49.234;7.268;2023-08-20T04:57:31;10.27;;;8.33;;
11078;SDS011;5592;49.234;7.268;2023-08-20T04:59:56;15.93;;;8.80;;
11078;SDS011;5592;49.234;7.268;2023-08-20T05:02:22;11.27;;;10.07;;
11078;SDS011;5592;49.234;7.268;2023-08-20T05:04:48;10.53;;;9.43;;
11078;SDS011;5592;49.234;7.268;2023-08-20T05:07:14;12.93;;;8.97;;
11078;SDS011;5592;49.234;7.268;2023-08-20T05:09:40;12.47;;;9.90;;
11078;SDS011;5592;49.234;7.268;2023-08-20T05:12:05;11.50;;;8.27;;
11078;SDS011;5592;49.234;7.268;2023-08-20T05:14:31;9.50;;;8.60;;
11078;SDS011;5592;49.234;7.268;2023-08-20T05:16:57;9.73;;;8.73;;
11078;SDS011;5592;49.234;7.268;2023-08-20T05:19:23;10.30;;;8.10;;
11078;SDS011;5592;49.234;7.268;2023-08-20T05:21:48;11.13;;;7.90;;
11078;SDS011;5592;49.234;7.268;2023-08-20T05:24:14;13.87;;;9.70;;
11078;SDS011;5592;49.234;7.268;2023-08-20T05:26:40;13.37;;;8.47;;
11078;SDS011;5592;49.234;7.268;2023-08-20T05:29:05;15.73;;;8.93;;
11078;SDS011;5592;49.234;7.268;2023-08-20T05:31:31;16.30;;;8.83;;
11078;SDS011;5592;49.234;7.268;2023-08-20T05:33:57;11.10;;;8.80;;
11078;SDS011;5592;49.234;7.268;2023-08-20T05:36:23;11.07;;;9.80;;
11078;SDS011;5592;49.234;7.268;2023-08-20T05:38:48;13.93;;;10.50;;
11078;SDS011;5592;49.234;7.268;2023-08-20T05:41:14;12.53;;;9.30;;
11078;SDS011;5592;49.234;7.268;2023-08-20T05:43:40;11.03;;;8.90;;
11078;SDS011;5592;49.234;7.268;2023-08-20T05:46:05;12.27;;;10.30;;
11078;SDS011;5592;49.234;7.268;2023-08-20T05:48:31;19.43;;;10.63;;
11078;SDS011;5592;49.234;7.268;2023-08-20T05:50:56;12.10;;;9.60;;
11078;SDS011;5592;49.234;7.268;2023-08-20T05:53:22;10.83;;;9.00;;
11078;SDS011;5592;49.234;7.268;2023-08-20T05:55:48;12.90;;;8.80;;
11078;SDS011;5592;49.234;7.268;2023-08-20T05:58:13;12.07;;;7.80;;
11078;SDS011;5592;49.234;7.268;2023-08-20T06:00:39;11.83;;;7.17;;
11078;SDS011;5592;49.234;7.268;2023-08-20T06:03:05;8.93;;;6.87;;
11078;SDS011;5592;49.234;7.268;2023-08-20T06:05:32;7.10;;;5.97;;
11078;SDS011;5592;49.234;7.268;2023-08-20T06:07:58;10.37;;;5.63;;
11078;SDS011;5592;49.234;7.268;2023-08-20T06:10:24;9.67;;;5.77;;
11078;SDS011;5592;49.234;7.268;2023-08-20T06:12:50;7.10;;;5.10;;
11078;SDS011;5592;49.234;7.268;2023-08-20T06:15:16;8.97;;;6.53;;
11078;SDS011;5592;49.234;7.268;2023-08-20T06:17:44;10.53;;;4.70;;
11078;SDS011;5592;49.234;7.268;2023-08-20T06:20:10;7.77;;;4.73;;
11078;SDS011;5592;49.234;7.268;2023-08-20T06:22:36;11.00;;;5.33;;
11078;SDS011;5592;49.234;7.268;2023-08-20T06:25:03;6.37;;;4.67;;
11078;SDS011;5592;49.234;7.268;2023-08-20T06:27:29;5.27;;;4.53;;
11078;SDS011;5592;49.234;7.268;2023-08-20T06:29:55;10.70;;;5.17;;
11078;SDS011;5592;49.234;7.268;2023-08-20T06:32:20;6.90;;;4.63;;
11078;SDS011;5592;49.234;7.268;2023-08-20T06:34:46;4.87;;;4.30;;
11078;SDS011;5592;49.234;7.268;2023-08-20T06:37:12;6.90;;;5.33;;
11078;SDS011;5592;49.234;7.268;2023-08-20T06:39:37;7.80;;;4.70;;
11078;SDS011;5592;49.234;7.268;2023-08-20T06:42:03;7.30;;;4.60;;
11078;SDS011;5592;49.234;7.268;2023-08-20T06:44:29;5.03;;;4.53;;
11078;SDS011;5592;49.234;7.268;2023-08-20T06:46:55;10.37;;;5.47;;
11078;SDS011;5592;49.234;7.268;2023-08-20T06:49:20;5.73;;;5.00;;
11078;SDS011;5592;49.234;7.268;2023-08-20T06:51:46;5.75;;;5.15;;
11078;SDS011;5592;49.234;7.268;2023-08-20T06:54:12;6.50;;;4.85;;
11078;SDS011;5592;49.234;7.268;2023-08-20T06:56:39;6.18;;;5.10;;
11078;SDS011;5592;49.234;7.268;2023-08-20T06:59:04;5.80;;;5.22;;
11078;SDS011;5592;49.234;7.268;2023-08-20T07:01:30;6.20;;;4.55;;
11078;SDS011;5592;49.234;7.268;2023-08-20T07:03:55;7.30;;;4.75;;
11078;SDS011;5592;49.234;7.268;2023-08-20T07:06:21;10.77;;;5.15;;
11078;SDS011;5592;49.234;7.268;2023-08-20T07:08:47;5.55;;;5.05;;
11078;SDS011;5592;49.234;7.268;2023-08-20T07:11:12;5.88;;;4.78;;
11078;SDS011;5592;49.234;7.268;2023-08-20T07:13:38;5.15;;;4.43;;
11078;SDS011;5592;49.234;7.268;2023-08-20T07:16:04;5.07;;;4.60;;
11078;SDS011;5592;49.234;7.268;2023-08-20T07:18:29;6.20;;;4.78;;
11078;SDS011;5592;49.234;7.268;2023-08-20T07:20:55;7.80;;;4.60;;
11078;SDS011;5592;49.234;7.268;2023-08-20T07:23:21;6.47;;;4.80;;
11078;SDS011;5592;49.234;7.268;2023-08-20T07:25:47;8.60;;;4.97;;
11078;SDS011;5592;49.234;7.268;2023-08-20T07:28:13;6.15;;;5.25;;
11078;SDS011;5592;49.234;7.268;2023-08-20T07:30:39;6.43;;;4.70;;
11078;SDS011;5592;49.234;7.268;2023-08-20T07:33:05;8.18;;;5.07;;
11078;SDS011;5592;49.234;7.268;2023-08-20T07:35:31;7.55;;;4.78;;
11078;SDS011;5592;49.234;7.268;2023-08-20T07:37:57;6.30;;;4.50;;
11078;SDS011;5592;49.234;7.268;2023-08-20T07:40:23;8.70;;;4.50;;
11078;SDS011;5592;49.234;7.268;2023-08-20T07:42:49;9.85;;;4.78;;
11078;SDS011;5592;49.234;7.268;2023-08-20T07:45:15;6.78;;;5.35;;
11078;SDS011;5592;49.234;7.268;2023-08-20T07:47:41;8.48;;;4.55;;
11078;SDS011;5592;49.234;7.268;2023-08-20T07:50:07;5.53;;;4.07;;
11078;SDS011;5592;49.234;7.268;2023-08-20T07:52:32;6.88;;;4.90;;
11078;SDS011;5592;49.234;7.268;2023-08-20T07:54:58;6.65;;;4.43;;
11078;SDS011;5592;49.234;7.268;2023-08-20T07:57:24;8.07;;;5.10;;
11078;SDS011;5592;49.234;7.268;2023-08-20T07:59:50;5.15;;;4.68;;
11078;SDS011;5592;49.234;7.268;2023-08-20T08:02:16;6.47;;;4.75;;
11078;SDS011;5592;49.234;7.268;2023-08-20T08:04:42;9.75;;;4.75;;
11078;SDS011;5592;49.234;7.268;2023-08-20T08:07:08;5.57;;;4.75;;
11078;SDS011;5592;49.234;7.268;2023-08-20T08:09:35;5.28;;;4.50;;
11078;SDS011;5592;49.234;7.268;2023-08-20T08:12:01;8.23;;;4.70;;
11078;SDS011;5592;49.234;7.268;2023-08-20T08:14:27;5.20;;;4.70;;
11078;SDS011;5592;49.234;7.268;2023-08-20T08:16:53;6.65;;;3.97;;
11078;SDS011;5592;49.234;7.268;2023-08-20T08:19:18;4.85;;;4.15;;
11078;SDS011;5592;49.234;7.268;2023-08-20T08:21:45;7.20;;;5.05;;
11078;SDS011;5592;49.234;7.268;2023-08-20T08:24:12;8.40;;;4.80;;
11078;SDS011;5592;49.234;7.268;2023-08-20T08:26:38;9.82;;;5.10;;
11078;SDS011;5592;49.234;7.268;2023-08-20T08:29:04;8.38;;;4.63;;
11078;SDS011;5592;49.234;7.268;2023-08-20T08:31:31;8.95;;;5.75;;
11078;SDS011;5592;49.234;7.268;2023-08-20T08:33:57;15.68;;;5.15;;
11078;SDS011;5592;49.234;7.268;2023-08-20T08:36:23;8.63;;;4.65;;
11078;SDS011;5592;49.234;7.268;2023-08-20T08:38:52;5.75;;;4.80;;
11078;SDS011;5592;49.234;7.268;2023-08-20T08:41:18;6.43;;;5.20;;
11078;SDS011;5592;49.234;7.268;2023-08-20T08:43:46;6.65;;;4.43;;
11078;SDS011;5592;49.234;7.268;2023-08-20T08:46:13;5.35;;;4.78;;
11078;SDS011;5592;49.234;7.268;2023-08-20T08:48:40;7.00;;;4.90;;
11078;SDS011;5592;49.234;7.268;2023-08-20T08:51:07;7.60;;;5.20;;
11078;SDS011;5592;49.234;7.268;2023-08-20T08:53:33;5.30;;;4.78;;
11078;SDS011;5592;49.234;7.268;2023-08-20T08:56:01;5.07;;;4.68;;
11078;SDS011;5592;49.234;7.268;2023-08-20T08:58:28;7.18;;;5.28;;
11078;SDS011;5592;49.234;7.268;2023-08-20T09:00:54;5.32;;;4.70;;
11078;SDS011;5592;49.234;7.268;2023-08-20T09:03:20;5.22;;;4.72;;
11078;SDS011;5592;49.234;7.268;2023-08-20T09:05:49;5.53;;;4.30;;
11078;SDS011;5592;49.234;7.268;2023-08-20T09:08:22;6.20;;;4.93;;
11078;SDS011;5592;49.234;7.268;2023-08-20T09:10:51;4.50;;;4.10;;
11078;SDS011;5592;49.234;7.268;2023-08-20T09:13:17;6.10;;;4.25;;
11078;SDS011;5592;49.234;7.268;2023-08-20T09:15:49;5.40;;;4.40;;
11078;SDS011;5592;49.234;7.268;2023-08-20T09:18:19;7.72;;;4.60;;
11078;SDS011;5592;49.234;7.268;2023-08-20T09:20:46;4.68;;;4.22;;
11078;SDS011;5592;49.234;7.268;2023-08-20T09:23:14;5.18;;;4.18;;
11078;SDS011;5592;49.234;7.268;2023-08-20T09:25:40;7.05;;;4.93;;
11078;SDS011;5592;49.234;7.268;2023-08-20T09:28:10;5.15;;;4.65;;
11078;SDS011;5592;49.234;7.268;2023-08-20T09:30:36;5.47;;;4.85;;
11078;SDS011;5592;49.234;7.268;2023-08-20T09:33:07;7.82;;;5.05;;
11078;SDS011;5592;49.234;7.268;2023-08-20T09:35:35;6.65;;;4.28;;
11078;SDS011;5592;49.234;7.268;2023-08-20T09:38:01;4.65;;;4.07;;
11078;SDS011;5592;49.234;7.268;2023-08-20T09:40:28;6.05;;;4.30;;
11078;SDS011;5592;49.234;7.268;2023-08-20T09:42:54;6.10;;;4.53;;
11078;SDS011;5592;49.234;7.268;2023-08-20T09:45:21;7.53;;;3.90;;
11078;SDS011;5592;49.234;7.268;2023-08-20T09:47:49;6.50;;;4.05;;
11078;SDS011;5592;49.234;7.268;2023-08-20T09:50:20;11.93;;;3.60;;
11078;SDS011;5592;49.234;7.268;2023-08-20T09:52:57;4.03;;;3.63;;
11078;SDS011;5592;49.234;7.268;2023-08-20T09:55:28;4.60;;;3.50;;
11078;SDS011;5592;49.234;7.268;2023-08-20T09:57:57;4.47;;;4.07;;
11078;SDS011;5592;49.234;7.268;2023-08-20T10:00:25;4.05;;;3.45;;
11078;SDS011;5592;49.234;7.268;2023-08-20T10:02:52;7.75;;;3.90;;
11078;SDS011;5592;49.234;7.268;2023-08-20T10:05:18;6.00;;;3.67;;
11078;SDS011;5592;49.234;7.268;2023-08-20T10:07:46;5.50;;;3.78;;
11078;SDS011;5592;49.234;7.268;2023-08-20T10:10:12;4.60;;;3.72;;
11078;SDS011;5592;49.234;7.268;2023-08-20T10:12:38;4.38;;;3.97;;
11078;SDS011;5592;49.234;7.268;2023-08-20T10:15:07;6.03;;;4.40;;
11078;SDS011;5592;49.234;7.268;2023-08-20T10:17:34;5.25;;;4.38;;
11078;SDS011;5592;49.234;7.268;2023-08-20T10:20:03;4.75;;;4.35;;
11078;SDS011;5592;49.234;7.268;2023-08-20T10:25:08;5.18;;;4.68;;
11078;SDS011;5592;49.234;7.268;2023-08-20T10:27:35;7.68;;;4.07;;
11078;SDS011;5592;49.234;7.268;2023-08-20T10:30:07;7.40;;;4.65;;
11078;SDS011;5592;49.234;7.268;2023-08-20T10:35:08;4.70;;;3.70;;
11078;SDS011;5592;49.234;7.268;2023-08-20T10:37:34;4.32;;;3.92;;
11078;SDS011;5592;49.234;7.268;2023-08-20T10:40:02;6.80;;;4.13;;
11078;SDS011;5592;49.234;7.268;2023-08-20T10:42:29;5.13;;;4.03;;
11078;SDS011;5592;49.234;7.268;2023-08-20T10:44:59;6.50;;;3.60;;
11078;SDS011;5592;49.234;7.268;2023-08-20T10:47:46;5.80;;;4.18;;
11078;SDS011;5592;49.234;7.268;2023-08-20T10:50:16;5.65;;;4.30;;
11078;SDS011;5592;49.234;7.268;2023-08-20T10:52:48;5.38;;;3.90;;
11078;SDS011;5592;49.234;7.268;2023-08-20T10:55:14;4.40;;;3.83;;
11078;SDS011;5592;49.234;7.268;2023-08-20T10:57:40;4.85;;;3.80;;
11078;SDS011;5592;49.234;7.268;2023-08-20T11:00:06;11.98;;;4.40;;
11078;SDS011;5592;49.234;7.268;2023-08-20T11:02:36;9.95;;;3.88;;
11078;SDS011;5592;49.234;7.268;2023-08-20T11:05:03;9.52;;;4.50;;
11078;SDS011;5592;49.234;7.268;2023-08-20T11:07:30;5.22;;;4.72;;
11078;SDS011;5592;49.234;7.268;2023-08-20T11:09:57;4.05;;;3.70;;
11078;SDS011;5592;49.234;7.268;2023-08-20T11:12:23;5.18;;;3.83;;
11078;SDS011;5592;49.234;7.268;2023-08-20T11:14:48;4.05;;;3.67;;
11078;SDS011;5592;49.234;7.268;2023-08-20T11:17:14;4.57;;;3.58;;
11078;SDS011;5592;49.234;7.268;2023-08-20T11:19:40;5.55;;;4.60;;
11078;SDS011;5592;49.234;7.268;2023-08-20T11:22:06;4.10;;;3.80;;
11078;SDS011;5592;49.234;7.268;2023-08-20T11:24:32;4.22;;;3.92;;
11078;SDS011;5592;49.234;7.268;2023-08-20T11:26:58;6.90;;;3.92;;
11078;SDS011;5592;49.234;7.268;2023-08-20T11:29:25;5.20;;;4.32;;
11078;SDS011;5592;49.234;7.268;2023-08-20T11:31:51;4.47;;;4.07;;
11078;SDS011;5592;49.234;7.268;2023-08-20T11:34:18;4.67;;;3.87;;
11078;SDS011;5592;49.234;7.268;2023-08-20T11:36:44;4.23;;;3.77;;
11078;SDS011;5592;49.234;7.268;2023-08-20T11:39:10;5.73;;;4.10;;
11078;SDS011;5592;49.234;7.268;2023-08-20T11:41:36;4.70;;;3.60;;
11078;SDS011;5592;49.234;7.268;2023-08-20T11:44:02;7.43;;;4.10;;
11078;SDS011;5592;49.234;7.268;2023-08-20T11:46:28;6.10;;;3.77;;
11078;SDS011;5592;49.234;7.268;2023-08-20T11:49:01;6.13;;;4.20;;
11078;SDS011;5592;49.234;7.268;2023-08-20T11:51:37;6.10;;;3.90;;
11078;SDS011;5592;49.234;7.268;2023-08-20T11:54:07;4.00;;;3.70;;
11078;SDS011;5592;49.234;7.268;2023-08-20T11:56:35;6.00;;;4.10;;
11078;SDS011;5592;49.234;7.268;2023-08-20T11:59:01;11.33;;;4.30;;
11078;SDS011;5592;49.234;7.268;2023-08-20T12:01:33;6.33;;;4.37;;
11078;SDS011;5592;49.234;7.268;2023-08-20T12:03:59;5.27;;;4.30;;
11078;SDS011;5592;49.234;7.268;2023-08-20T12:06:26;5.60;;;4.60;;
11078;SDS011;5592;49.234;7.268;2023-08-20T12:08:55;4.47;;;3.43;;
11078;SDS011;5592;49.234;7.268;2023-08-20T12:11:27;4.70;;;4.20;;
11078;SDS011;5592;49.234;7.268;2023-08-20T12:13:53;5.70;;;3.90;;
11078;SDS011;5592;49.234;7.268;2023-08-20T12:16:23;7.37;;;4.70;;
11078;SDS011;5592;49.234;7.268;2023-08-20T12:18:51;4.93;;;4.10;;
11078;SDS011;5592;49.234;7.268;2023-08-20T12:21:20;5.67;;;4.10;;
11078;SDS011;5592;49.234;7.268;2023-08-20T12:23:46;4.07;;;3.67;;
11078;SDS011;5592;49.234;7.268;2023-08-20T12:26:12;5.33;;;4.60;;
11078;SDS011;5592;49.234;7.268;2023-08-20T12:28:37;6.23;;;4.23;;
11078;SDS011;5592;49.234;7.268;2023-08-20T12:31:03;6.23;;;3.80;;
11078;SDS011;5592;49.234;7.268;2023-08-20T12:33:29;5.10;;;4.50;;
11078;SDS011;5592;49.234;7.268;2023-08-20T12:35:54;5.20;;;3.73;;
11078;SDS011;5592;49.234;7.268;2023-08-20T12:38:21;6.40;;;3.70;;
11078;SDS011;5592;49.234;7.268;2023-08-20T12:40:47;4.40;;;3.90;;
11078;SDS011;5592;49.234;7.268;2023-08-20T12:43:13;9.33;;;4.70;;
11078;SDS011;5592;49.234;7.268;2023-08-20T12:45:38;5.10;;;4.70;;
11078;SDS011;5592;49.234;7.268;2023-08-20T12:48:04;5.30;;;4.33;;
11078;SDS011;5592;49.234;7.268;2023-08-20T12:50:30;4.50;;;4.10;;
11078;SDS011;5592;49.234;7.268;2023-08-20T12:52:56;7.80;;;4.40;;
11078;SDS011;5592;49.234;7.268;2023-08-20T12:55:22;6.33;;;4.03;;
11078;SDS011;5592;49.234;7.268;2023-08-20T12:57:54;6.90;;;3.80;;
11078;SDS011;5592;49.234;7.268;2023-08-20T13:00:25;5.87;;;4.50;;
11078;SDS011;5592;49.234;7.268;2023-08-20T13:02:51;7.37;;;4.03;;
11078;SDS011;5592;49.234;7.268;2023-08-20T13:05:23;4.93;;;3.77;;
11078;SDS011;5592;49.234;7.268;2023-08-20T13:07:50;16.60;;;4.20;;
11078;SDS011;5592;49.234;7.268;2023-08-20T13:10:16;4.87;;;4.47;;
11078;SDS011;5592;49.234;7.268;2023-08-20T13:12:43;4.77;;;4.37;;
11078;SDS011;5592;49.234;7.268;2023-08-20T13:15:15;8.70;;;4.33;;
11078;SDS011;5592;49.234;7.268;2023-08-20T13:17:42;4.53;;;4.13;;
11078;SDS011;5592;49.234;7.268;2023-08-20T13:20:08;6.40;;;4.23;;
11078;SDS011;5592;49.234;7.268;2023-08-20T13:22:34;7.33;;;4.60;;
11078;SDS011;5592;49.234;7.268;2023-08-20T13:25:00;5.93;;;4.77;;
11078;SDS011;5592;49.234;7.268;2023-08-20T13:27:25;6.97;;;4.93;;
11078;SDS011;5592;49.234;7.268;2023-08-20T13:29:51;5.60;;;4.33;;
11078;SDS011;5592;49.234;7.268;2023-08-20T13:32:17;5.20;;;4.50;;
11078;SDS011;5592;49.234;7.268;2023-08-20T13:34:42;5.50;;;4.80;;
11078;SDS011;5592;49.234;7.268;2023-08-20T13:37:08;6.40;;;4.77;;
11078;SDS011;5592;49.234;7.268;2023-08-20T13:39:33;8.90;;;4.00;;
11078;SDS011;5592;49.234;7.268;2023-08-20T13:41:59;5.57;;;4.47;;
11078;SDS011;5592;49.234;7.268;2023-08-20T13:44:25;5.20;;;4.03;;
11078;SDS011;5592;49.234;7.268;2023-08-20T13:46:50;5.10;;;4.30;;
11078;SDS011;5592;49.234;7.268;2023-08-20T13:49:16;4.37;;;3.93;;
11078;SDS011;5592;49.234;7.268;2023-08-20T13:51:41;5.70;;;3.90;;
11078;SDS011;5592;49.234;7.268;2023-08-20T13:54:07;7.43;;;4.40;;
11078;SDS011;5592;49.234;7.268;2023-08-20T13:56:32;4.77;;;4.33;;
11078;SDS011;5592;49.234;7.268;2023-08-20T13:58:58;5.50;;;4.70;;
11078;SDS011;5592;49.234;7.268;2023-08-20T14:01:24;8.20;;;4.43;;
11078;SDS011;5592;49.234;7.268;2023-08-20T14:03:49;5.70;;;4.60;;
11078;SDS011;5592;49.234;7.268;2023-08-20T14:06:15;4.50;;;4.10;;
11078;SDS011;5592;49.234;7.268;2023-08-20T14:08:41;7.10;;;4.67;;
11078;SDS011;5592;49.234;7.268;2023-08-20T14:11:08;7.27;;;4.57;;
11078;SDS011;5592;49.234;7.268;2023-08-20T14:13:34;5.93;;;4.67;;
11078;SDS011;5592;49.234;7.268;2023-08-20T14:15:59;4.67;;;4.13;;
11078;SDS011;5592;49.234;7.268;2023-08-20T14:18:26;7.17;;;4.13;;
11078;SDS011;5592;49.234;7.268;2023-08-20T14:20:51;6.20;;;4.00;;
11078;SDS011;5592;49.234;7.268;2023-08-20T14:23:17;6.43;;;4.50;;
11078;SDS011;5592;49.234;7.268;2023-08-20T14:25:43;4.63;;;4.23;;
11078;SDS011;5592;49.234;7.268;2023-08-20T14:28:08;5.40;;;4.30;;
11078;SDS011;5592;49.234;7.268;2023-08-20T14:30:37;7.30;;;5.00;;
11078;SDS011;5592;49.234;7.268;2023-08-20T14:33:03;7.13;;;4.50;;
11078;SDS011;5592;49.234;7.268;2023-08-20T14:35:30;4.93;;;4.27;;
11078;SDS011;5592;49.234;7.268;2023-08-20T14:37:56;7.23;;;4.30;;
11078;SDS011;5592;49.234;7.268;2023-08-20T14:40:22;8.27;;;4.00;;
11078;SDS011;5592;49.234;7.268;2023-08-20T14:42:48;9.27;;;4.70;;
11078;SDS011;5592;49.234;7.268;2023-08-20T14:45:14;11.10;;;4.07;;
11078;SDS011;5592;49.234;7.268;2023-08-20T14:47:40;7.43;;;5.00;;
11078;SDS011;5592;49.234;7.268;2023-08-20T14:50:06;5.80;;;4.40;;
11078;SDS011;5592;49.234;7.268;2023-08-20T14:52:33;6.10;;;4.80;;
11078;SDS011;5592;49.234;7.268;2023-08-20T14:55:00;5.37;;;3.63;;
11078;SDS011;5592;49.234;7.268;2023-08-20T14:57:26;9.77;;;4.60;;
11078;SDS011;5592;49.234;7.268;2023-08-20T14:59:51;6.17;;;4.67;;
11078;SDS011;5592;49.234;7.268;2023-08-20T15:02:17;5.53;;;4.20;;
11078;SDS011;5592;49.234;7.268;2023-08-20T15:04:43;7.87;;;4.40;;
11078;SDS011;5592;49.234;7.268;2023-08-20T15:07:09;4.60;;;4.00;;